Mentor, OH (44061)

9:47 AM EST on January 30, 2015 (GMT -0500)
Mentorfire5 | Change Station
CLOSE
Current Station
Personal Weather Station
Location: Mentor, OH
Elevation: 620 ft
Nearby Weather Stations

Elev 620 ft 41.70 °N, 81.34 °W | Updated 10 minutes ago

Overcast
Overcast
16.6 °F
Feels Like 2 °F
N
14.0
Wind Variable Wind from NNW
Gusts 25.0 mph

Today
High -- | Low -- °F
--% Chance of Precip.
Yesterday
High -- | Low -- °F
Precip. -- in
7:39 AM 5:38 PM
Waxing Gibbous, 83% visible
Pressure 30.28 in
Visibility 7.0 miles
Clouds Scattered Clouds 1500 ft
Overcast 3500 ft
Windchill 2 °F
Dew Point 12 °F
Humidity 82%
Rainfall 0.00 in
Snow Depth Not available.
UV 0 out of 12
Pollen .10 out of 12
Air Quality Not available.
Flu Activity Not available.
METAR KCGF 301345Z 33017G23KT 7SM SCT015 OVC035 M07/M10 A3028

More Conditions Fewer Conditions

Pressure 30.28 in
Visibility 7.0 miles
Clouds Scattered Clouds 1500 ft
Overcast 3500 ft
Windchill 2 °F
Dew Point 12 °F
Humidity 82%
Rainfall 0.00 in
Snow Depth Not available.
UV 0 out of 12
Pollen .10 out of 12
Air Quality Not available.
Flu Activity Not available.
METAR KCGF 301345Z 33017G23KT 7SM SCT015 OVC035 M07/M10 A3028

More Conditions Fewer Conditions

Nowcast | as of 7:53 am EST on January 30, 2015

Blowing snow will continue to produce problems through 10 am and may reduce visibilities at times...especially near open fields. While there will still be pockets of moderate snow it appears that the snow will taper off through the morning. Any additional accumulations will be 1 to locally 3 inches. If traveling this morning be sure to give yourself extra time to reach your destination.

×

10-Day Weather Forecast

Almanac

Astronomy

Jan. 30, 2015 Rise Set
Actual Time
Civil Twilight
Nautical Twilight
Astronomical Twilight
Moon
Length of Visible Light
Length of Day
Tomorrow will be .
, % of the Moon is Illuminated

Today's Extremes

State Highs State Lows

Community

WunderPhotos

Upload Photos

1,791,768 photos uploaded!

WunderBlogs® & News

Nearby

Air Quality

  Air Quality AQ Index Pollutant
Not available.

Snow Depth

Station Depth Elevation

Earthquake Activity

City Distance Mag. Time & Date
Minimum magnitude displayed is 2.5.

Coastal Water Temperatures

Place Temperature

Nearby Weather Stations